Ashton, Idaho
Current Conditions -  °F | °C
As of 5:53 PM on Monday 20 Oct 2014 (Local Time) from KRXE Reporting Station
Broken Clouds Broken Clouds  
Wind Chill: 69°   Ceiling: 11000
Heat Index: 69°   Visibility: 10mi
Dew Point: 38°   Wind: 3mph
Humidity: 32%   Direction: 220°SW
Pressure: 29.93"   Gusts: NA
Location:  44.07°N, 111.45°W
Report Text: KRXE 202353Z AUTO 22003KT 10SM BKN110 21/03 A2993 RMK AO2 SLP119 T02060033 10217 20161 58013
Loading
Personal Weather Stations






























Interactive Weather Map
Tropical Storm Tracking
New forecast layout! Learn more

10-Day Weather Forecast

Advertisements
Track Severe Weather on mobile